createdAt,value
2023-02-23T00:02:07.760Z,7.00
2023-02-23T00:04:36.204Z,6.90
2023-02-23T00:07:03.428Z,6.90
2023-02-23T00:09:35.749Z,6.90
2023-02-23T00:12:08.400Z,6.90
2023-02-23T00:14:39.997Z,6.80
2023-02-23T00:17:14.955Z,6.80
2023-02-23T00:19:43.801Z,6.80
2023-02-23T00:22:12.064Z,6.70
2023-02-23T00:24:40.761Z,6.70
2023-02-23T00:27:07.955Z,6.80
2023-02-23T00:29:39.684Z,6.80
2023-02-23T00:32:07.469Z,6.70
2023-02-23T00:34:35.922Z,6.60
2023-02-23T00:37:03.060Z,6.60
2023-02-23T00:39:30.147Z,6.50
2023-02-23T00:42:03.309Z,6.50
2023-02-23T00:44:32.014Z,6.40
2023-02-23T00:46:59.229Z,6.30
2023-02-23T00:49:26.823Z,6.20
2023-02-23T00:51:54.323Z,6.20
2023-02-23T00:54:22.544Z,6.20
2023-02-23T00:56:50.634Z,6.20
2023-02-23T00:59:18.756Z,6.30
2023-02-23T01:01:45.948Z,6.30
2023-02-23T01:04:14.246Z,6.40
2023-02-23T01:06:42.792Z,6.50
2023-02-23T01:09:16.958Z,6.40
2023-02-23T01:11:47.103Z,6.20
2023-02-23T01:14:14.571Z,6.20
2023-02-23T01:16:41.621Z,6.10
2023-02-23T01:19:10.236Z,6.20
2023-02-23T01:21:42.234Z,6.30
2023-02-23T01:24:10.150Z,6.40
2023-02-23T01:26:40.092Z,6.30
2023-02-23T01:29:12.804Z,6.30
2023-02-23T01:31:42.476Z,6.20
2023-02-23T01:34:12.141Z,6.20
2023-02-23T01:36:41.887Z,6.30
2023-02-23T01:39:15.506Z,6.30
2023-02-23T01:41:42.786Z,6.30
2023-02-23T01:44:31.185Z,6.20
2023-02-23T01:46:58.480Z,6.10
2023-02-23T01:49:30.139Z,6.10
2023-02-23T01:52:05.703Z,6.00
2023-02-23T01:54:38.200Z,6.00
2023-02-23T01:57:07.997Z,5.90
2023-02-23T01:59:47.316Z,5.90
2023-02-23T02:02:16.256Z,5.90
2023-02-23T02:04:46.804Z,5.90
2023-02-23T02:07:20.540Z,5.90
2023-02-23T02:10:18.186Z,6.00
2023-02-23T02:12:48.173Z,5.90
2023-02-23T02:15:18.075Z,6.00
2023-02-23T02:18:23.616Z,6.00
2023-02-23T02:21:05.145Z,6.00
2023-02-23T02:23:42.082Z,6.00
2023-02-23T02:26:40.015Z,5.90
2023-02-23T02:29:09.875Z,5.80
2023-02-23T02:31:57.145Z,5.80
2023-02-23T02:34:51.908Z,5.70
2023-02-23T02:38:01.743Z,5.70
2023-02-23T02:40:53.406Z,5.60
2023-02-23T02:43:31.347Z,5.60
2023-02-23T02:46:26.770Z,5.60
2023-02-23T02:49:09.467Z,5.50
2023-02-23T02:51:53.647Z,5.40
2023-02-23T02:54:43.987Z,5.40
2023-02-23T02:57:12.926Z,5.50
2023-02-23T03:00:07.749Z,5.50
2023-02-23T03:02:58.899Z,5.50
2023-02-23T03:06:11.270Z,5.40
2023-02-23T03:09:18.556Z,5.40
2023-02-23T03:12:25.417Z,5.40
2023-02-23T03:15:11.001Z,5.30
2023-02-23T03:18:06.321Z,5.40
2023-02-23T03:20:51.867Z,5.40
2023-02-23T03:24:15.372Z,5.30
2023-02-23T03:27:30.453Z,5.30
2023-02-23T03:30:37.804Z,5.30
2023-02-23T03:33:35.999Z,5.40
2023-02-23T03:36:29.570Z,5.30
2023-02-23T03:39:29.893Z,5.30
2023-02-23T03:42:17.467Z,5.30
2023-02-23T03:45:07.155Z,5.20
2023-02-23T03:47:56.837Z,5.30
2023-02-23T03:51:12.297Z,5.20
2023-02-23T03:54:08.772Z,5.20
2023-02-23T03:56:58.725Z,5.20
2023-02-23T03:59:50.196Z,5.20
2023-02-23T04:02:38.400Z,5.30
2023-02-23T04:05:30.176Z,5.30
2023-02-23T04:08:20.198Z,5.40
2023-02-23T04:11:17.316Z,5.40
2023-02-23T04:13:49.057Z,5.50
2023-02-23T04:16:16.338Z,5.50
2023-02-23T04:18:43.860Z,5.40
2023-02-23T04:21:10.968Z,5.30
2023-02-23T04:23:40.892Z,5.30
2023-02-23T04:26:07.991Z,5.40
2023-02-23T04:28:35.091Z,5.30
2023-02-23T04:31:02.431Z,5.30
2023-02-23T04:33:29.562Z,5.40
2023-02-23T04:35:56.624Z,5.50
2023-02-23T04:38:24.019Z,5.60
2023-02-23T04:40:51.680Z,5.70
2023-02-23T04:43:18.778Z,5.90
2023-02-23T04:45:46.326Z,6.00
2023-02-23T04:48:13.409Z,6.10
2023-02-23T04:50:40.426Z,6.20
2023-02-23T04:53:07.648Z,6.20
2023-02-23T04:55:34.668Z,6.30
2023-02-23T04:58:02.761Z,6.30
2023-02-23T05:00:30.237Z,6.20
2023-02-23T05:02:58.347Z,6.10
2023-02-23T05:05:25.717Z,6.10
2023-02-23T05:07:53.808Z,6.00
2023-02-23T05:10:21.119Z,6.00
2023-02-23T05:12:48.158Z,6.00
2023-02-23T05:15:15.622Z,5.90
2023-02-23T05:17:43.134Z,5.90
2023-02-23T05:20:12.305Z,5.90
2023-02-23T05:22:39.796Z,5.90
2023-02-23T05:25:08.882Z,5.90
2023-02-23T05:27:37.032Z,5.80
2023-02-23T05:30:05.869Z,5.80
2023-02-23T05:32:33.123Z,5.80
2023-02-23T05:35:00.662Z,5.80
2023-02-23T05:37:28.064Z,5.80
2023-02-23T05:39:55.468Z,5.90
2023-02-23T05:42:22.565Z,5.90
2023-02-23T05:44:49.589Z,5.90
2023-02-23T05:47:16.760Z,6.00
2023-02-23T05:49:45.868Z,6.20
2023-02-23T05:52:12.929Z,6.30
2023-02-23T05:54:40.048Z,6.40
2023-02-23T05:57:08.465Z,6.60
2023-02-23T05:59:35.735Z,6.70
2023-02-23T06:02:06.907Z,6.80
2023-02-23T06:04:34.035Z,6.80
2023-02-23T06:07:01.312Z,6.90
2023-02-23T06:09:28.306Z,7.00
2023-02-23T06:11:55.281Z,7.10
2023-02-23T06:14:22.296Z,7.10
2023-02-23T06:16:49.326Z,7.20
2023-02-23T06:19:16.615Z,7.20
2023-02-23T06:21:43.641Z,7.30
2023-02-23T06:24:11.156Z,7.40
2023-02-23T06:26:38.565Z,7.50
2023-02-23T06:29:05.668Z,7.60
2023-02-23T06:31:32.804Z,7.50
2023-02-23T06:33:59.908Z,7.50
2023-02-23T06:36:26.948Z,7.50
2023-02-23T06:38:58.253Z,7.50
2023-02-23T06:41:26.621Z,7.50
2023-02-23T06:43:54.233Z,7.50
2023-02-23T06:46:21.517Z,7.50
2023-02-23T06:48:48.680Z,7.60
2023-02-23T06:51:15.746Z,7.60
2023-02-23T06:53:42.713Z,7.60
2023-02-23T06:56:12.345Z,7.60
2023-02-23T06:58:40.219Z,7.70
2023-02-23T07:01:07.257Z,7.80
2023-02-23T07:03:35.427Z,7.90
2023-02-23T07:06:05.819Z,8.00
2023-02-23T07:08:34.120Z,8.10
2023-02-23T07:11:09.345Z,8.20
2023-02-23T07:13:37.047Z,8.30
2023-02-23T07:16:04.499Z,8.40
2023-02-23T07:18:31.799Z,8.50
2023-02-23T07:20:58.974Z,8.70
2023-02-23T07:23:26.177Z,8.80
2023-02-23T07:25:55.254Z,8.90
2023-02-23T07:28:22.513Z,9.00
2023-02-23T07:30:52.309Z,9.10
2023-02-23T07:33:19.373Z,9.20
2023-02-23T07:35:46.453Z,9.40
2023-02-23T07:38:13.694Z,9.40
2023-02-23T07:40:40.805Z,9.40
2023-02-23T07:43:08.029Z,9.20
2023-02-23T07:45:35.465Z,9.20
2023-02-23T07:48:02.892Z,9.50
2023-02-23T07:50:30.062Z,9.70
2023-02-23T07:52:57.175Z,9.70
2023-02-23T07:55:24.276Z,9.80
2023-02-23T07:57:51.350Z,9.80
2023-02-23T08:00:19.100Z,9.90
2023-02-23T08:02:46.128Z,9.90
2023-02-23T08:05:13.400Z,10.20
2023-02-23T08:07:40.494Z,10.10
2023-02-23T08:10:08.234Z,10.40
2023-02-23T08:12:35.527Z,10.50
2023-02-23T08:15:03.417Z,10.70
2023-02-23T08:17:30.511Z,10.90
2023-02-23T08:19:57.536Z,11.00
2023-02-23T08:22:24.648Z,11.20
2023-02-23T08:24:51.828Z,11.40
2023-02-23T08:27:20.020Z,11.50
2023-02-23T08:29:47.118Z,11.20
2023-02-23T08:32:14.501Z,11.20
2023-02-23T08:34:43.428Z,11.40
2023-02-23T08:37:10.823Z,11.60
2023-02-23T08:39:38.290Z,11.70
2023-02-23T08:42:05.566Z,11.80
2023-02-23T08:44:32.756Z,11.70
2023-02-23T08:47:01.390Z,11.40
2023-02-23T08:49:28.488Z,11.50
2023-02-23T08:51:55.532Z,11.20
2023-02-23T08:54:22.541Z,11.30
2023-02-23T08:56:49.589Z,11.50
2023-02-23T08:59:16.744Z,11.40
2023-02-23T09:01:43.855Z,11.60
2023-02-23T09:04:11.445Z,11.60
2023-02-23T09:06:38.721Z,11.90
2023-02-23T09:09:06.059Z,11.90
2023-02-23T09:11:33.401Z,12.20
2023-02-23T09:14:00.494Z,12.30
2023-02-23T09:16:27.520Z,12.60
2023-02-23T09:18:54.622Z,12.60
2023-02-23T09:21:25.340Z,12.60
2023-02-23T09:23:54.627Z,12.90
2023-02-23T09:26:22.644Z,13.20
2023-02-23T09:28:50.960Z,13.20
2023-02-23T09:31:21.179Z,13.50
2023-02-23T09:33:48.885Z,13.80
2023-02-23T09:36:25.982Z,13.90
2023-02-23T09:38:57.310Z,13.90
2023-02-23T09:41:45.908Z,13.50
2023-02-23T09:44:23.644Z,13.40
2023-02-23T09:47:11.548Z,13.70
2023-02-23T09:49:41.172Z,14.20
2023-02-23T09:52:18.757Z,14.30
2023-02-23T09:54:47.165Z,14.50
2023-02-23T09:57:25.941Z,14.30
2023-02-23T09:59:53.299Z,14.40
2023-02-23T10:03:11.975Z,14.30
2023-02-23T10:06:08.766Z,14.70
2023-02-23T10:08:55.033Z,15.20
2023-02-23T10:11:21.960Z,15.40
2023-02-23T10:14:15.716Z,15.30
2023-02-23T10:17:07.138Z,15.60
2023-02-23T10:19:53.701Z,15.70
2023-02-23T10:22:21.606Z,16.00
2023-02-23T10:25:01.064Z,15.70
2023-02-23T10:27:37.804Z,15.80
2023-02-23T10:30:14.727Z,15.90
2023-02-23T10:32:52.358Z,16.00
2023-02-23T10:35:21.737Z,16.30
2023-02-23T10:37:50.648Z,16.30
2023-02-23T10:40:24.175Z,16.20
2023-02-23T10:42:52.787Z,16.30
2023-02-23T10:45:25.695Z,16.20
2023-02-23T10:48:13.753Z,16.50
2023-02-23T10:50:44.062Z,16.40
2023-02-23T10:53:27.690Z,16.60
2023-02-23T10:56:08.595Z,17.10
2023-02-23T10:58:46.678Z,17.20
2023-02-23T11:01:16.966Z,17.50
2023-02-23T11:04:05.511Z,17.50
2023-02-23T11:06:43.324Z,17.10
2023-02-23T11:09:46.200Z,17.10
2023-02-23T11:12:28.611Z,16.80
2023-02-23T11:14:59.328Z,17.00
2023-02-23T11:17:31.847Z,17.20
2023-02-23T11:20:17.445Z,17.10
2023-02-23T11:22:45.045Z,16.80
2023-02-23T11:25:29.751Z,16.60
2023-02-23T11:27:59.087Z,16.40
2023-02-23T11:30:37.414Z,16.70
2023-02-23T11:33:12.405Z,16.80
2023-02-23T11:35:39.586Z,16.90
2023-02-23T11:38:27.206Z,16.70
2023-02-23T11:41:07.345Z,16.70
2023-02-23T11:43:35.860Z,17.10
2023-02-23T11:46:04.241Z,17.10
2023-02-23T11:48:37.818Z,17.00
2023-02-23T11:51:05.418Z,16.90
2023-02-23T11:53:41.055Z,16.90
2023-02-23T11:56:11.294Z,16.70
2023-02-23T11:58:40.596Z,16.80
2023-02-23T12:01:14.410Z,16.90
2023-02-23T12:03:45.828Z,17.00
2023-02-23T12:06:12.915Z,17.20
2023-02-23T12:08:48.092Z,17.10
2023-02-23T12:11:27.600Z,17.00
2023-02-23T12:14:16.113Z,17.20
2023-02-23T12:16:49.199Z,17.50
2023-02-23T12:19:38.160Z,17.60
2023-02-23T12:22:15.393Z,17.30
2023-02-23T12:24:50.686Z,17.60
2023-02-23T12:27:39.390Z,17.70
2023-02-23T12:30:55.562Z,17.80
2023-02-23T12:33:50.717Z,17.40
2023-02-23T12:36:31.956Z,17.00
2023-02-23T12:39:18.048Z,17.00
2023-02-23T12:42:03.448Z,17.20
2023-02-23T12:44:40.513Z,17.20
2023-02-23T12:47:47.045Z,17.30
2023-02-23T12:50:38.016Z,17.30
2023-02-23T12:53:36.924Z,17.70
2023-02-23T12:56:27.959Z,17.50
2023-02-23T12:59:16.348Z,16.90
2023-02-23T13:01:50.230Z,16.60
2023-02-23T13:04:26.267Z,16.60
2023-02-23T13:07:07.576Z,16.50
2023-02-23T13:10:13.067Z,16.40
2023-02-23T13:12:53.586Z,16.20
2023-02-23T13:15:44.826Z,16.10
2023-02-23T13:18:21.850Z,16.00
2023-02-23T13:20:52.846Z,16.10
2023-02-23T13:23:43.493Z,16.20
2023-02-23T13:26:19.585Z,16.30
2023-02-23T13:28:56.712Z,16.30
2023-02-23T13:31:27.140Z,16.30
2023-02-23T13:33:57.991Z,16.30
2023-02-23T13:36:29.711Z,16.40
2023-02-23T13:39:18.631Z,16.10
2023-02-23T13:42:14.107Z,16.20
2023-02-23T13:44:44.279Z,16.00
2023-02-23T13:47:36.005Z,16.00
2023-02-23T13:50:03.042Z,16.10
2023-02-23T13:52:33.523Z,16.10
2023-02-23T13:55:04.426Z,16.30
2023-02-23T13:57:32.996Z,16.20
2023-02-23T14:00:01.053Z,16.30
2023-02-23T14:02:34.760Z,16.10
2023-02-23T14:05:06.149Z,16.20
2023-02-23T14:07:39.574Z,16.00
2023-02-23T14:10:17.902Z,15.80
2023-02-23T14:13:28.148Z,15.80
2023-02-23T14:16:20.015Z,16.00
2023-02-23T14:19:04.840Z,16.10
2023-02-23T14:21:35.336Z,16.20
2023-02-23T14:24:26.399Z,16.00
2023-02-23T14:27:09.714Z,16.00
2023-02-23T14:29:45.302Z,15.90
2023-02-23T14:32:15.077Z,15.90
2023-02-23T14:35:01.845Z,15.90
2023-02-23T14:37:34.445Z,16.10
2023-02-23T14:40:33.809Z,16.30
2023-02-23T14:43:03.489Z,16.30
2023-02-23T14:45:37.935Z,16.00
2023-02-23T14:48:17.346Z,15.80
2023-02-23T14:50:44.712Z,15.70
2023-02-23T14:53:22.051Z,15.60
2023-02-23T14:55:49.994Z,15.70
2023-02-23T14:58:33.695Z,15.70
2023-02-23T15:01:00.950Z,15.50
2023-02-23T15:03:28.049Z,15.40
2023-02-23T15:06:01.092Z,15.30
2023-02-23T15:08:31.036Z,15.40
2023-02-23T15:11:10.843Z,15.50
2023-02-23T15:13:42.470Z,15.60
2023-02-23T15:16:15.632Z,15.60
2023-02-23T15:18:44.693Z,15.60
2023-02-23T15:21:16.853Z,15.70
2023-02-23T15:23:50.282Z,15.90
2023-02-23T15:26:27.920Z,15.90
2023-02-23T15:28:56.422Z,15.80
2023-02-23T15:31:23.748Z,15.70
2023-02-23T15:33:51.111Z,15.60
2023-02-23T15:36:27.256Z,15.60
2023-02-23T15:38:56.519Z,15.70
2023-02-23T15:41:34.770Z,15.70
2023-02-23T15:44:29.748Z,15.70
2023-02-23T15:47:06.266Z,15.60
2023-02-23T15:49:38.096Z,15.50
2023-02-23T15:52:14.778Z,15.40
2023-02-23T15:54:54.746Z,15.30
2023-02-23T15:57:29.749Z,15.20
2023-02-23T16:00:09.661Z,15.10
2023-02-23T16:02:37.880Z,14.90
2023-02-23T16:05:25.766Z,14.80
2023-02-23T16:08:23.519Z,14.70
2023-02-23T16:10:57.601Z,14.60
2023-02-23T16:13:24.907Z,14.60
2023-02-23T16:15:55.427Z,14.50
2023-02-23T16:18:41.076Z,14.30
2023-02-23T16:21:14.610Z,14.20
2023-02-23T16:23:45.824Z,14.10
2023-02-23T16:26:26.728Z,14.10
2023-02-23T16:29:02.937Z,14.00
2023-02-23T16:31:47.970Z,13.80
2023-02-23T16:34:35.763Z,13.70
2023-02-23T16:37:23.243Z,13.60
2023-02-23T16:39:50.644Z,13.60
2023-02-23T16:42:31.924Z,13.50
2023-02-23T16:45:00.092Z,13.50
2023-02-23T16:47:41.487Z,13.40
2023-02-23T16:50:21.373Z,13.30
2023-02-23T16:52:53.599Z,13.30
2023-02-23T16:55:26.350Z,13.20
2023-02-23T16:58:17.898Z,13.20
2023-02-23T17:00:45.216Z,13.20
2023-02-23T17:03:26.352Z,13.10
2023-02-23T17:05:54.364Z,13.10
2023-02-23T17:08:22.007Z,13.10
2023-02-23T17:10:54.684Z,13.10
2023-02-23T17:13:24.518Z,13.10
2023-02-23T17:15:56.292Z,13.20
2023-02-23T17:18:26.428Z,13.20
2023-02-23T17:20:55.030Z,13.20
2023-02-23T17:23:27.130Z,13.20
2023-02-23T17:25:56.117Z,13.10
2023-02-23T17:28:23.267Z,13.10
2023-02-23T17:30:50.466Z,13.10
2023-02-23T17:33:18.213Z,13.10
2023-02-23T17:35:46.240Z,13.10
2023-02-23T17:38:15.106Z,13.10
2023-02-23T17:40:42.202Z,13.00
2023-02-23T17:43:09.522Z,13.00
2023-02-23T17:45:36.829Z,13.10
2023-02-23T17:48:04.063Z,13.00
2023-02-23T17:50:31.200Z,13.00
2023-02-23T17:52:58.424Z,12.90
2023-02-23T17:55:26.027Z,13.00
2023-02-23T17:57:53.218Z,13.00
2023-02-23T18:00:20.992Z,12.90
2023-02-23T18:02:48.002Z,12.90
2023-02-23T18:05:15.915Z,12.80
2023-02-23T18:07:43.166Z,12.80
2023-02-23T18:10:11.566Z,12.80
2023-02-23T18:12:39.035Z,12.80
2023-02-23T18:15:07.336Z,12.70
2023-02-23T18:17:37.804Z,12.70
2023-02-23T18:20:06.853Z,12.70
2023-02-23T18:22:34.975Z,12.60
2023-02-23T18:25:02.151Z,12.60
2023-02-23T18:27:29.212Z,12.50
2023-02-23T18:29:56.404Z,12.50
2023-02-23T18:32:23.701Z,12.50
2023-02-23T18:34:51.218Z,12.40
2023-02-23T18:37:28.965Z,12.40
2023-02-23T18:40:04.781Z,12.40
2023-02-23T18:42:42.392Z,12.40
2023-02-23T18:45:19.108Z,12.40
2023-02-23T18:47:56.836Z,12.50
2023-02-23T18:50:33.772Z,12.40
2023-02-23T18:53:10.514Z,12.50
2023-02-23T18:55:43.966Z,12.50
2023-02-23T18:58:19.426Z,12.40
2023-02-23T19:00:59.305Z,12.40
2023-02-23T19:03:37.437Z,12.40
2023-02-23T19:06:21.318Z,12.40
2023-02-23T19:09:01.374Z,12.30
2023-02-23T19:11:40.108Z,12.30
2023-02-23T19:14:40.998Z,12.30
2023-02-23T19:17:17.658Z,12.30
2023-02-23T19:19:55.190Z,12.40
2023-02-23T19:22:31.542Z,12.40
2023-02-23T19:25:02.035Z,12.40
2023-02-23T19:27:39.345Z,12.40
2023-02-23T19:30:16.137Z,12.40
2023-02-23T19:32:51.917Z,12.30
2023-02-23T19:35:27.078Z,12.20
2023-02-23T19:38:04.242Z,12.20
2023-02-23T19:40:42.632Z,12.20
2023-02-23T19:43:17.532Z,12.10
2023-02-23T19:45:47.930Z,12.10
2023-02-23T19:48:23.890Z,12.00
2023-02-23T19:50:59.819Z,12.00
2023-02-23T19:53:36.939Z,11.90
2023-02-23T19:56:17.623Z,11.90
2023-02-23T19:58:56.077Z,11.80
2023-02-23T20:01:36.088Z,11.90
2023-02-23T20:04:14.168Z,11.90
2023-02-23T20:06:50.851Z,12.00
2023-02-23T20:09:26.458Z,12.00
2023-02-23T20:12:04.663Z,11.90
2023-02-23T20:14:40.437Z,11.90
2023-02-23T20:17:09.356Z,11.90
2023-02-23T20:19:36.597Z,11.80
2023-02-23T20:22:03.965Z,11.80
2023-02-23T20:24:31.309Z,11.80
2023-02-23T20:26:59.474Z,11.90
2023-02-23T20:29:28.330Z,11.90
2023-02-23T20:31:56.008Z,12.00
2023-02-23T20:34:24.905Z,12.00
2023-02-23T20:36:52.709Z,12.00
2023-02-23T20:39:20.196Z,12.00
2023-02-23T20:41:48.038Z,12.00
2023-02-23T20:44:16.252Z,12.00
2023-02-23T20:46:44.794Z,11.90
2023-02-23T20:49:17.094Z,12.00
2023-02-23T20:51:47.358Z,12.00
2023-02-23T20:54:15.716Z,12.00
2023-02-23T20:56:43.921Z,11.90
2023-02-23T20:59:12.600Z,11.90
2023-02-23T21:01:41.360Z,11.90
2023-02-23T21:04:09.147Z,11.80
2023-02-23T21:06:36.240Z,11.80
2023-02-23T21:09:04.708Z,11.80
2023-02-23T21:11:32.901Z,11.70
2023-02-23T21:14:00.727Z,11.70
2023-02-23T21:16:32.473Z,11.80
2023-02-23T21:19:05.955Z,11.80
2023-02-23T21:21:39.934Z,11.80
2023-02-23T21:24:07.655Z,11.80
2023-02-23T21:26:34.880Z,11.70
2023-02-23T21:29:02.842Z,11.70
2023-02-23T21:31:30.725Z,11.60
2023-02-23T21:33:57.854Z,11.60
2023-02-23T21:36:25.039Z,11.50
2023-02-23T21:38:52.188Z,11.50
2023-02-23T21:41:21.128Z,11.50
2023-02-23T21:43:53.635Z,11.60
2023-02-23T21:46:23.071Z,11.50
2023-02-23T21:48:50.294Z,11.50
2023-02-23T21:51:18.605Z,11.40
2023-02-23T21:53:46.924Z,11.40
2023-02-23T21:56:17.246Z,11.40
2023-02-23T21:58:47.528Z,11.50
2023-02-23T22:01:17.720Z,11.40
2023-02-23T22:03:47.064Z,11.50
2023-02-23T22:06:22.752Z,11.50
2023-02-23T22:08:50.748Z,11.40
2023-02-23T22:11:24.927Z,11.30
2023-02-23T22:14:00.738Z,11.30
2023-02-23T22:16:34.597Z,11.30
2023-02-23T22:19:04.542Z,11.20
2023-02-23T22:21:35.370Z,11.20
2023-02-23T22:24:05.611Z,11.20
2023-02-23T22:26:38.403Z,11.20
2023-02-23T22:29:07.044Z,11.20
2023-02-23T22:31:34.482Z,11.10
2023-02-23T22:34:01.766Z,11.10
2023-02-23T22:36:29.279Z,11.20
2023-02-23T22:39:00.261Z,11.10
2023-02-23T22:41:31.280Z,11.10
2023-02-23T22:43:58.575Z,11.00
2023-02-23T22:46:26.560Z,11.00
2023-02-23T22:48:53.632Z,11.00
2023-02-23T22:51:21.168Z,11.10
2023-02-23T22:53:48.524Z,11.10
2023-02-23T22:56:15.702Z,11.10
2023-02-23T22:58:42.788Z,11.20
2023-02-23T23:01:11.832Z,11.10
2023-02-23T23:03:42.022Z,11.20
2023-02-23T23:06:11.155Z,11.10
2023-02-23T23:08:41.038Z,11.20
2023-02-23T23:11:15.313Z,11.20
2023-02-23T23:13:44.993Z,11.10
2023-02-23T23:16:30.653Z,11.10
2023-02-23T23:19:04.780Z,11.10
2023-02-23T23:21:34.495Z,11.10
2023-02-23T23:24:06.682Z,11.10
2023-02-23T23:26:37.287Z,11.10
2023-02-23T23:29:05.921Z,11.10
2023-02-23T23:31:35.323Z,11.10
2023-02-23T23:34:06.191Z,11.10
2023-02-23T23:36:43.065Z,11.10
2023-02-23T23:39:12.209Z,11.20
2023-02-23T23:41:40.319Z,11.20
2023-02-23T23:44:07.525Z,11.20
2023-02-23T23:46:38.008Z,11.10
2023-02-23T23:49:08.208Z,11.00
2023-02-23T23:51:44.919Z,11.00
2023-02-23T23:54:22.482Z,10.80
2023-02-23T23:56:50.590Z,10.70
2023-02-23T23:59:20.535Z,10.60
